»·PEaware :: CGMWT KSNA-KBUR

CGMWT :: KSNA-KBUR

FLIGHT INFORMATION

Flight Status: Arrived
Operator: Unknown
More flights by this operator :: More flights under this callsign
Pilot: Konrad W. (32064)
Aircraft: Diamond DA-62
(DA62)
More flights by this aircraft type
Origin: KSNA John Wayne-Orange Co
United States
Destination: KBUR Bob Hope-Burbank
United States
More flights between these airports :: More routes between these airports
Route: +SLI V23 POPPR SMO125 SMO SMO311 SILEX
File this flight plan on PilotEdge
Remarks: TEC CSTP1
Altitude:
(Current/Filed)
4,000ft
Speed:
(Current/Filed)
170kts
Departed: 30-Nov-20 07:38 PM
Arrived: 30-Nov-20 08:09 PM
Distance/Time
Traveled:
40nm/0:31
Distance/Time
To Go:
Arrived

Flight Plot

Page will automatically refresh every two minutes.


Map Options




Map Legend


Flown Route
Filed Route
Departure Airport
Arrival Airport
Navaid (VOR, NDB)
Fix

Horizontal Profiles

Position Reports

Time Latitude Longitude Heading Altitude Ground
Speed
30-Nov-20 19:12 33.672692 -117.873247 247 54ft 0kts
30-Nov-20 19:13 33.672692 -117.873247 247 54ft 0kts
30-Nov-20 19:14 33.672692 -117.873247 247 54ft 0kts
30-Nov-20 19:15 33.672692 -117.873247 247 54ft 0kts
30-Nov-20 19:16 33.672692 -117.873247 247 54ft 0kts
30-Nov-20 19:17 33.672692 -117.873247 247 54ft 0kts
30-Nov-20 19:18 33.672692 -117.873247 247 54ft 0kts
30-Nov-20 19:19 33.672692 -117.873247 247 54ft 0kts
30-Nov-20 19:20 33.672692 -117.873247 247 54ft 0kts
30-Nov-20 19:21 33.672692 -117.873247 247 54ft 0kts
30-Nov-20 19:22 33.672692 -117.873247 247 54ft 0kts
30-Nov-20 19:23 33.672692 -117.873247 247 54ft 0kts
30-Nov-20 19:24 33.672692 -117.873247 247 54ft 0kts
30-Nov-20 19:25 33.672692 -117.873247 247 54ft 0kts
30-Nov-20 19:26 33.672692 -117.873247 247 54ft 0kts
30-Nov-20 19:27 33.672692 -117.873247 247 54ft 0kts
30-Nov-20 19:28 33.672692 -117.873247 247 54ft 0kts
30-Nov-20 19:29 33.672692 -117.873247 247 54ft 0kts
30-Nov-20 19:30 33.672692 -117.873247 247 54ft 0kts
30-Nov-20 19:31 33.672692 -117.873247 247 54ft 0kts
30-Nov-20 19:32 33.672360 -117.872493 63 54ft 14kts
30-Nov-20 19:33 33.679032 -117.868223 26 48ft 26kts
30-Nov-20 19:34 33.681203 -117.866410 117 43ft 0kts
30-Nov-20 19:35 33.681204 -117.866410 117 43ft 0kts
30-Nov-20 19:36 33.681182 -117.866361 116 43ft 5kts
30-Nov-20 19:37 33.670373 -117.872194 208 120ft 110kts
30-Nov-20 19:38 33.645011 -117.902454 233 916ft 126kts
30-Nov-20 19:39 33.625697 -117.935138 235 1717ft 117kts
30-Nov-20 19:40 33.605276 -117.970113 234 2004ft 141kts
30-Nov-20 19:41 33.581929 -118.009567 234 2017ft 147kts
30-Nov-20 19:42 33.558121 -118.049543 234 2019ft 148kts
30-Nov-20 19:43 33.542933 -118.092506 282 2178ft 138kts
30-Nov-20 19:44 33.560297 -118.129909 332 2680ft 129kts
30-Nov-20 19:45 33.588989 -118.152169 326 3476ft 114kts
30-Nov-20 19:46 33.619352 -118.167297 340 3980ft 133kts
30-Nov-20 19:47 33.655264 -118.186895 335 3993ft 146kts
30-Nov-20 19:48 33.693484 -118.207250 336 3992ft 158kts
30-Nov-20 19:49 33.734409 -118.229634 336 3991ft 162kts
30-Nov-20 19:50 33.775708 -118.252007 336 3991ft 163kts
30-Nov-20 19:51 33.816885 -118.274375 336 3991ft 162kts
30-Nov-20 19:52 33.858610 -118.292198 4 3997ft 161kts
30-Nov-20 19:53 33.885105 -118.331599 308 3999ft 163kts
30-Nov-20 19:54 33.919438 -118.366188 324 4001ft 162kts
30-Nov-20 19:55 33.953841 -118.399901 321 4001ft 162kts
30-Nov-20 19:56 33.988512 -118.434805 321 4001ft 162kts
30-Nov-20 19:57 34.023763 -118.468263 328 4000ft 161kts
30-Nov-20 19:59 34.060860 -118.497886 327 4000ft 161kts
30-Nov-20 20:00 34.099560 -118.529360 327 3547ft 174kts
30-Nov-20 20:01 34.138322 -118.560912 327 3324ft 164kts
30-Nov-20 20:02 34.172266 -118.588598 327 3308ft 135kts
30-Nov-20 20:03 34.201733 -118.573005 66 3311ft 130kts
30-Nov-20 20:04 34.197151 -118.530827 100 3224ft 131kts
30-Nov-20 20:05 34.199701 -118.486995 88 2658ft 125kts
30-Nov-20 20:06 34.198933 -118.452284 87 2052ft 88kts
30-Nov-20 20:07 34.198525 -118.415073 90 1562ft 122kts
30-Nov-20 20:08 34.198051 -118.379586 90 943ft 92kts
30-Nov-20 20:09 34.198491 -118.360251 1 716ft 11kts
30-Nov-20 20:10 34.198547 -118.360249 1 716ft 0kts
30-Nov-20 20:11 34.198547 -118.360249 1 716ft 0kts
30-Nov-20 20:12 34.200022 -118.359357 70 718ft 10kts
30-Nov-20 20:13 34.200147 -118.358763 78 720ft 0kts
30-Nov-20 20:14 34.200147 -118.358763 78 720ft 0kts
30-Nov-20 20:15 34.200147 -118.358763 78 720ft 0kts
30-Nov-20 20:16 34.200147 -118.358763 78 720ft 0kts
30-Nov-20 20:17 34.200147 -118.358763 78 720ft 0kts
30-Nov-20 20:18 34.200147 -118.358763 78 720ft 0kts
30-Nov-20 20:18 34.200147 -118.358763 78 720ft 0kts
30-Nov-20 20:20 34.200147 -118.358763 78 720ft 0kts
30-Nov-20 20:20 34.200147 -118.358763 78 720ft 0kts
30-Nov-20 20:21 34.200147 -118.358763 78 720ft 0kts
30-Nov-20 20:22 34.200147 -118.358763 78 720ft 0kts

Navigation Log

Ident Type
Flight plan parsing failed, navigation log unavailable